KMVL/MVL METAR and TAF weather

Enter ICAO airport designator
Station Type Date Time Source
KMVL METAR 2020/05/26 04:54 UTC NOAA

KMVL 260454Z AUTO 16005KT 10SM FEW060 15/13 A3016 RMK AO2 SLP211 T01500133 402440083


Station Type Date Time Source
KMVL Decoded METAR 2020/05/26 04:54 UTC NOAA

MORRISVILLE STOWE STATE AIRPORT , VT, United States (KMVL) 44-32N 72-37W 223M
May 26, 2020 - 12:54 AM EDT / 2020.05.26 0454 UTC
Wind: from the SSE (160 degrees) at 6 MPH (5 KT):0
Visibility: 10 mile(s):0
Sky conditions: mostly clear
Temperature: 59.0 F (15.0 C)
Dew Point: 55.9 F (13.3 C)
Relative Humidity: 89%
Pressure (altimeter): 30.16 in. Hg (1021 hPa)
ob: KMVL 260454Z AUTO 16005KT 10SM FEW060 15/13 A3016 RMK AO2 SLP211 T01500133 402440083
cycle: 5

Station Type Date Time Source
KMVL TAF UTC NOAA

Error!

Example: see airport list